Time;durP1;ratioP1;P1;durP2;ratioP2;P2;SDS_P1;SDS_P2;PMS_P1;PMS_P2;Temp;Humidity;BMP_temperature;BMP_pressure;BME280_temperature;BME280_humidity;BME280_pressure;Samples;Min_cycle;Max_cycle;Signal;HPM_P1;HPM_P2
2021/07/20 00:00:47;;;;;;;13.95;12.20;;;588.90;2432.00;;;;;;5073556;28;20021;-79
2021/07/20 00:03:13;;;;;;;18.52;13.05;;;588.90;2432.00;;;;;;5072951;28;20063;-82
2021/07/20 00:05:41;;;;;;;15.93;13.52;;;588.90;2432.00;;;;;;5074938;28;20547;-82
2021/07/20 00:08:11;;;;;;;18.75;13.55;;;588.90;2432.00;;;;;;5074252;28;20052;-80
2021/07/20 00:10:46;;;;;;;14.60;12.32;;;588.90;2432.00;;;;;;5074197;28;20013;-80
2021/07/20 00:13:12;;;;;;;;;;;588.80;2432.00;;;;;;5073777;28;20037;-82
2021/07/20 00:15:39;;;;;;;22.00;14.65;;;588.90;2432.00;;;;;;5075780;28;20003;-82
2021/07/20 00:18:17;;;;;;;17.15;13.50;;;588.90;2432.00;;;;;;5062223;28;20029;-80
2021/07/20 00:20:44;;;;;;;17.15;13.13;;;588.80;2432.00;;;;;;5088248;28;20025;-81
2021/07/20 00:23:10;;;;;;;15.65;12.95;;;588.80;2432.00;;;;;;5073795;28;20040;-83
2021/07/20 00:25:36;;;;;;;16.92;13.57;;;564.10;2432.00;;;;;;5073984;28;20103;-85
2021/07/20 00:28:03;;;;;;;19.65;13.98;;;564.10;2432.00;;;;;;5075303;28;20021;-85
2021/07/20 00:30:30;;;;;;;18.55;12.43;;;588.80;2432.00;;;;;;5074860;28;20024;-76
2021/07/20 00:32:55;;;;;;;15.60;13.02;;;564.10;2432.00;;;;;;5072698;28;20029;-85
2021/07/20 00:35:22;;;;;;;24.95;12.82;;;588.80;2432.00;;;;;;5074049;28;20024;-84
2021/07/20 00:37:48;;;;;;;14.60;11.75;;;588.90;2432.00;;;;;;5073942;28;20404;-85
2021/07/20 00:40:16;;;;;;;15.70;12.10;;;589.20;2432.00;;;;;;5073594;28;20123;-79
2021/07/20 00:42:43;;;;;;;16.55;13.13;;;564.10;2432.00;;;;;;5071670;28;20028;-83
2021/07/20 00:45:12;;;;;;;16.23;12.73;;;564.10;2432.00;;;;;;5074649;28;20033;-85
2021/07/20 00:47:38;;;;;;;12.85;10.70;;;564.00;2432.00;;;;;;5074131;28;20093;-84
2021/07/20 00:50:09;;;;;;;17.17;10.80;;;563.90;2432.00;;;;;;5074555;28;20017;-77
2021/07/20 00:52:36;;;;;;;16.00;11.50;;;563.90;2432.00;;;;;;5072724;28;20050;-83
2021/07/20 00:55:04;;;;;;;15.50;11.13;;;564.00;2432.00;;;;;;5073222;28;20103;-78
2021/07/20 00:57:31;;;;;;;14.57;12.32;;;564.10;2432.00;;;;;;5071585;28;20052;-76
2021/07/20 00:59:58;;;;;;;17.92;11.45;;;564.10;2432.00;;;;;;5073452;28;20342;-76
2021/07/20 01:02:24;;;;;;;15.70;11.32;;;564.00;2432.00;;;;;;5070413;28;20041;-76
2021/07/20 01:04:50;;;;;;;15.88;11.05;;;564.00;2432.00;;;;;;5074496;28;20055;-83
2021/07/20 01:07:18;;;;;;;15.05;11.30;;;564.00;2432.00;;;;;;5074438;28;20021;-83
2021/07/20 01:09:46;;;;;;;12.85;11.18;;;563.90;2432.00;;;;;;5079538;28;20065;-81
2021/07/20 01:12:13;;;;;;;11.38;9.48;;;563.90;2432.00;;;;;;5091416;28;20060;-83
2021/07/20 01:14:39;;;;;;;14.95;10.95;;;564.00;2432.00;;;;;;5091391;28;20020;-84
2021/07/20 01:17:05;;;;;;;12.77;10.23;;;563.90;2432.00;;;;;;5092920;28;20038;-84
2021/07/20 01:19:36;;;;;;;13.57;10.35;;;564.00;2432.00;;;;;;5091008;28;20474;-85
2021/07/20 01:22:02;;;;;;;12.95;10.60;;;564.10;2432.00;;;;;;5092783;28;20038;-84
2021/07/20 01:24:28;;;;;;;12.98;10.73;;;564.10;2432.00;;;;;;5090948;28;20103;-86
2021/07/20 01:26:54;;;;;;;17.55;10.65;;;564.10;2432.00;;;;;;5085343;28;20287;-85
2021/07/20 01:29:22;;;;;;;12.25;10.52;;;564.10;2432.00;;;;;;5079869;28;20036;-84
2021/07/20 01:31:50;;;;;;;17.13;11.90;;;588.80;2432.00;;;;;;5092412;28;20027;-82
2021/07/20 01:34:17;;;;;;;14.95;12.10;;;588.80;2432.00;;;;;;5092724;28;20073;-86
2021/07/20 01:36:46;;;;;;;15.80;13.00;;;588.80;2432.00;;;;;;5089667;28;20479;-83
2021/07/20 01:39:13;;;;;;;16.48;12.45;;;588.80;2432.00;;;;;;5060549;28;20167;-84
2021/07/20 01:41:41;;;;;;;18.08;13.10;;;588.80;2432.00;;;;;;5052562;28;20516;-82
2021/07/20 01:44:11;;;;;;;17.27;13.10;;;588.80;2432.00;;;;;;5053807;28;20025;-82
2021/07/20 01:46:39;;;;;;;20.88;14.13;;;588.90;2432.00;;;;;;5054559;28;20500;-84
2021/07/20 01:49:09;;;;;;;17.25;13.52;;;588.90;2432.00;;;;;;5053465;28;20039;-83
2021/07/20 01:51:36;;;;;;;20.52;14.48;;;588.90;2432.00;;;;;;5064734;28;20028;-80
2021/07/20 01:54:02;;;;;;;18.80;15.07;;;588.90;2432.00;;;;;;5073334;28;20481;-84
2021/07/20 01:56:28;;;;;;;21.20;15.40;;;588.90;2432.00;;;;;;5073587;28;20127;-81
2021/07/20 01:58:54;;;;;;;21.02;15.77;;;588.90;2432.00;;;;;;5073343;28;20492;-83
2021/07/20 02:01:25;;;;;;;19.42;15.05;;;588.90;2432.00;;;;;;5073284;28;20071;-82
2021/07/20 02:09:12;;;;;;;16.85;15.00;;;589.00;2432.00;;;;;;5073895;28;20500;-83
2021/07/20 02:11:40;;;;;;;20.10;15.70;;;588.90;2432.00;;;;;;5073283;28;20523;-84
2021/07/20 02:14:10;;;;;;;21.10;15.38;;;589.10;2432.00;;;;;;5073320;28;20108;-83
2021/07/20 02:16:41;;;;;;;20.38;16.02;;;588.90;2432.00;;;;;;5073461;28;20023;-82
2021/07/20 02:19:27;;;;;;;26.85;17.27;;;588.90;2432.00;;;;;;5073531;28;20056;-80
2021/07/20 02:21:55;;;;;;;22.58;17.67;;;588.90;2432.00;;;;;;5073554;28;20028;-84
2021/07/20 02:24:25;;;;;;;21.95;17.48;;;588.90;2432.00;;;;;;5073360;28;20036;-77
2021/07/20 02:26:53;;;;;;;23.30;18.25;;;588.90;2432.00;;;;;;5073153;28;20044;-84
2021/07/20 02:29:20;;;;;;;24.98;18.42;;;588.90;2432.00;;;;;;5072161;28;20028;-84
2021/07/20 02:31:49;;;;;;;21.25;18.40;;;588.90;2432.00;;;;;;5073100;28;20492;-78
2021/07/20 02:34:19;;;;;;;25.65;19.95;;;589.00;2432.00;;;;;;5073121;28;20031;-84
2021/07/20 02:36:44;;;;;;;21.27;19.08;;;589.00;2432.00;;;;;;5073340;28;20047;-77
2021/07/20 02:39:12;;;;;;;22.70;18.55;;;589.00;2432.00;;;;;;5073223;28;20469;-85
2021/07/20 02:41:39;;;;;;;23.25;18.77;;;589.10;2432.00;;;;;;5086557;28;20028;-80
2021/07/20 02:44:06;;;;;;;23.88;19.35;;;589.10;2432.00;;;;;;5073368;28;20029;-81
2021/07/20 02:46:34;;;;;;;26.38;19.20;;;589.10;2432.00;;;;;;5073245;28;20029;-84
2021/07/20 02:49:00;;;;;;;26.15;19.75;;;589.10;2432.00;;;;;;5073169;28;20021;-84
2021/07/20 02:51:27;;;;;;;25.75;19.42;;;589.10;2432.00;;;;;;5072953;28;20029;-83
2021/07/20 02:53:55;;;;;;;26.58;20.10;;;589.10;2432.00;;;;;;5072163;28;20036;-84
2021/07/20 02:56:21;;;;;;;23.45;18.73;;;589.10;2432.00;;;;;;5073083;28;20084;-81
2021/07/20 02:58:50;;;;;;;26.00;20.13;;;588.90;2432.00;;;;;;5072977;28;20024;-84
2021/07/20 03:01:17;;;;;;;26.45;20.25;;;589.00;2432.00;;;;;;5073146;28;20037;-85
2021/07/20 03:03:44;;;;;;;22.15;18.20;;;589.10;2432.00;;;;;;5073190;28;20020;-78
2021/07/20 03:06:12;;;;;;;25.33;19.00;;;589.20;2432.00;;;;;;5073068;28;20021;-77
2021/07/20 03:08:39;;;;;;;27.33;19.27;;;588.90;2432.00;;;;;;5072966;28;20051;-84
2021/07/20 03:11:10;;;;;;;26.65;19.25;;;589.10;2432.00;;;;;;5072558;28;20044;-84
2021/07/20 03:13:40;;;;;;;25.63;18.73;;;589.00;2432.00;;;;;;5071571;28;20043;-82
2021/07/20 03:16:08;;;;;;;24.27;19.58;;;589.10;2432.00;;;;;;5074257;28;20412;-85
2021/07/20 03:18:39;;;;;;;22.38;18.35;;;589.10;2432.00;;;;;;5075300;28;20481;-85
2021/07/20 03:21:06;;;;;;;25.33;19.80;;;589.00;2432.00;;;;;;5075019;28;20025;-85
2021/07/20 03:23:34;;;;;;;26.48;19.83;;;588.90;2432.00;;;;;;5074993;28;20082;-80
2021/07/20 03:26:01;;;;;;;25.40;18.92;;;588.80;2432.00;;;;;;5074641;28;20051;-82
2021/07/20 03:28:28;;;;;;;27.33;20.42;;;588.90;2432.00;;;;;;5076276;28;20025;-85
2021/07/20 03:30:55;;;;;;;28.23;20.65;;;588.90;2432.00;;;;;;5075962;28;20024;-82
2021/07/20 03:33:23;;;;;;;27.15;20.55;;;588.90;2432.00;;;;;;5074902;28;20596;-84
2021/07/20 03:35:52;;;;;;;27.35;21.30;;;588.80;2432.00;;;;;;5075963;28;20104;-84
2021/07/20 03:38:19;;;;;;;26.70;22.17;;;564.10;2432.00;;;;;;5075751;28;20111;-84
2021/07/20 03:40:47;;;;;;;26.90;21.45;;;564.00;2432.00;;;;;;5075819;28;20082;-86
2021/07/20 03:43:15;;;;;;;29.10;22.05;;;564.00;2432.00;;;;;;5075830;28;20040;-84
2021/07/20 03:45:41;;;;;;;28.95;20.88;;;564.00;2432.00;;;;;;5075845;28;20020;-84
2021/07/20 03:48:08;;;;;;;26.77;21.55;;;563.90;2432.00;;;;;;5074792;28;20100;-78
2021/07/20 03:50:35;;;;;;;26.95;21.55;;;563.80;2432.00;;;;;;5076247;28;20016;-85
2021/07/20 03:53:02;;;;;;;26.33;19.75;;;563.90;2432.00;;;;;;5074831;28;20032;-85
2021/07/20 03:55:28;;;;;;;25.15;19.75;;;564.00;2432.00;;;;;;5074760;28;20170;-83
2021/07/20 03:57:54;;;;;;;26.35;20.83;;;563.90;2432.00;;;;;;5074474;28;20072;-84
2021/07/20 04:00:20;;;;;;;27.98;22.00;;;563.90;2432.00;;;;;;5074556;28;20031;-84
2021/07/20 04:02:56;;;;;;;26.02;20.85;;;563.90;2432.00;;;;;;5075440;28;20501;-82
2021/07/20 04:05:22;;;;;;;;;;;563.90;2432.00;;;;;;5076019;28;20024;-84
2021/07/20 04:07:51;;;;;;;28.40;20.95;;;563.90;2432.00;;;;;;5075536;28;19912;-77
2021/07/20 04:10:17;;;;;;;26.55;20.38;;;563.90;2432.00;;;;;;5073823;28;20062;-76
2021/07/20 04:12:43;;;;;;;28.75;22.08;;;564.00;2432.00;;;;;;5074761;28;20032;-85
2021/07/20 04:15:13;;;;;;;29.27;22.23;;;564.00;2432.00;;;;;;5075021;28;20055;-83
2021/07/20 04:17:39;;;;;;;22.55;18.92;;;564.10;2432.00;;;;;;5075191;28;20036;-82
2021/07/20 04:20:05;;;;;;;22.02;18.88;;;564.10;2432.00;;;;;;5075133;28;20024;-83
2021/07/20 04:22:32;;;;;;;22.48;18.15;;;564.10;2432.00;;;;;;5074881;28;20050;-83
2021/07/20 04:24:59;;;;;;;23.25;17.23;;;564.00;2432.00;;;;;;5075338;28;20096;-81
2021/07/20 04:27:25;;;;;;;21.83;16.13;;;563.90;2432.00;;;;;;5074744;28;20029;-81
2021/07/20 04:29:51;;;;;;;18.35;16.40;;;564.00;2432.00;;;;;;5074530;28;20051;-80
2021/07/20 04:32:19;;;;;;;19.75;16.45;;;564.00;2432.00;;;;;;5074606;28;20068;-78
2021/07/20 04:34:44;;;;;;;19.08;15.20;;;564.00;2432.00;;;;;;5072933;28;20037;-78
2021/07/20 04:37:10;;;;;;;18.23;16.33;;;564.00;2432.00;;;;;;5074530;28;20077;-78
2021/07/20 04:39:37;;;;;;;19.83;16.05;;;563.90;2432.00;;;;;;5074430;28;20157;-77
2021/07/20 04:42:04;;;;;;;21.45;17.17;;;563.90;2432.00;;;;;;5074314;28;20033;-82
2021/07/20 04:44:30;;;;;;;18.73;15.32;;;564.00;2432.00;;;;;;5074556;28;20025;-83
2021/07/20 04:46:57;;;;;;;20.25;15.20;;;563.90;2432.00;;;;;;5073127;28;20115;-82
2021/07/20 04:49:23;;;;;;;17.52;15.73;;;564.10;2432.00;;;;;;5074422;28;20025;-81
2021/07/20 04:51:49;;;;;;;19.13;15.55;;;564.10;2432.00;;;;;;5072282;28;20491;-81
2021/07/20 04:54:17;;;;;;;22.67;15.88;;;564.10;2432.00;;;;;;5071792;28;20036;-80
2021/07/20 04:56:44;;;;;;;21.08;16.52;;;564.10;2432.00;;;;;;5071842;28;20458;-79
2021/07/20 04:59:11;;;;;;;19.30;16.20;;;564.10;2432.00;;;;;;5085612;28;20043;-81
2021/07/20 05:01:38;;;;;;;19.40;17.33;;;588.80;2432.00;;;;;;5080274;28;20090;-83
2021/07/20 05:04:05;;;;;;;25.67;18.35;;;588.80;2432.00;;;;;;5092282;28;20024;-81
2021/07/20 05:06:32;;;;;;;22.75;15.75;;;588.80;2432.00;;;;;;5090747;28;20081;-82
2021/07/20 05:08:58;;;;;;;19.55;17.13;;;588.90;2432.00;;;;;;5092118;28;20028;-80
2021/07/20 05:11:24;;;;;;;19.08;17.02;;;588.90;2432.00;;;;;;5092674;28;20024;-81
2021/07/20 05:13:50;;;;;;;20.75;17.10;;;588.90;2432.00;;;;;;5092629;28;20089;-80
2021/07/20 05:16:16;;;;;;;19.63;17.58;;;564.10;2432.00;;;;;;5091072;28;20350;-80
2021/07/20 05:18:45;;;;;;;22.40;18.05;;;588.80;2432.00;;;;;;5081484;28;20028;-80
2021/07/20 05:21:12;;;;;;;19.77;17.67;;;588.80;2432.00;;;;;;5089303;28;20027;-81
2021/07/20 05:23:41;;;;;;;22.73;18.30;;;588.90;2432.00;;;;;;5092380;28;20469;-80
2021/07/20 05:26:08;;;;;;;21.58;19.35;;;588.80;2432.00;;;;;;5093494;28;20111;-80
2021/07/20 05:28:35;;;;;;;26.08;19.80;;;588.90;2432.00;;;;;;5092076;28;20036;-78
2021/07/20 05:31:03;;;;;;;23.17;20.70;;;588.90;2432.00;;;;;;5092178;28;20477;-77
2021/07/20 05:33:29;;;;;;;24.55;20.95;;;588.90;2432.00;;;;;;5076677;28;20035;-78
2021/07/20 05:35:58;;;;;;;24.83;20.00;;;588.90;2432.00;;;;;;5091918;28;20024;-78
2021/07/20 05:38:29;;;;;;;25.63;20.70;;;589.00;2432.00;;;;;;5088750;28;20028;-79
2021/07/20 05:40:57;;;;;;;25.27;21.10;;;589.00;2432.00;;;;;;5084318;28;20012;-80
2021/07/20 05:43:25;;;;;;;26.63;21.25;;;589.00;2432.00;;;;;;5072791;28;20035;-79
2021/07/20 05:45:53;;;;;;;25.40;21.95;;;589.00;2432.00;;;;;;5072973;28;20020;-78
2021/07/20 05:48:22;;;;;;;29.55;21.13;;;589.10;2432.00;;;;;;5072953;28;20028;-79
2021/07/20 05:50:52;;;;;;;25.30;22.33;;;589.10;2432.00;;;;;;5071617;28;20017;-79
2021/07/20 05:53:19;;;;;;;29.15;23.30;;;589.10;2432.00;;;;;;5071769;28;20378;-80
2021/07/20 05:55:50;;;;;;;28.35;23.52;;;589.00;2432.00;;;;;;5073119;28;20044;-79
2021/07/20 05:58:17;;;;;;;31.38;24.88;;;589.10;2432.00;;;;;;5072683;28;20031;-79
2021/07/20 06:00:44;;;;;;;25.73;22.98;;;589.10;2432.00;;;;;;5072686;28;20021;-80
2021/07/20 06:03:18;;;;;;;27.48;23.48;;;589.10;2432.00;;;;;;5071966;28;20024;-82
2021/07/20 06:05:47;;;;;;;29.20;22.90;;;589.20;2432.00;;;;;;5071654;28;20033;-79
2021/07/20 06:08:15;;;;;;;28.20;25.20;;;589.20;2432.00;;;;;;5071902;28;20024;-83
2021/07/20 06:10:44;;;;;;;28.38;23.77;;;589.30;2432.00;;;;;;5071791;28;20116;-82
2021/07/20 06:13:10;;;;;;;30.63;26.35;;;589.30;2432.00;;;;;;5071640;28;20041;-81
2021/07/20 06:15:42;;;;;;;31.48;25.17;;;589.30;2432.00;;;;;;5072656;28;20469;-81
2021/07/20 06:18:08;;;;;;;28.05;25.08;;;589.50;2432.00;;;;;;5087631;28;20057;-83
2021/07/20 06:20:36;;;;;;;27.08;24.17;;;589.50;2432.00;;;;;;5092978;28;20055;-79
2021/07/20 06:23:03;;;;;;;30.23;24.25;;;589.50;2432.00;;;;;;5082959;28;20044;-82
2021/07/20 06:25:30;;;;;;;25.25;22.58;;;589.70;2432.00;;;;;;5072096;28;20019;-81
2021/07/20 06:27:57;;;;;;;23.95;21.35;;;589.70;2432.00;;;;;;5068118;28;20032;-83
2021/07/20 06:30:23;;;;;;;29.10;25.95;;;589.60;2432.00;;;;;;5072654;28;20021;-82
2021/07/20 06:32:51;;;;;;;27.17;24.27;;;589.60;2432.00;;;;;;5071011;28;20029;-79
2021/07/20 06:35:18;;;;;;;25.02;21.33;;;589.60;2432.00;;;;;;5068492;28;20110;-78
2021/07/20 06:37:48;;;;;;;23.00;20.20;;;589.70;2432.00;;;;;;5072191;28;20466;-81
2021/07/20 06:40:19;;;;;;;24.02;19.75;;;589.70;2432.00;;;;;;5071055;28;20025;-81
2021/07/20 06:42:46;;;;;;;24.00;18.20;;;589.50;2432.00;;;;;;5070589;28;20039;-79
2021/07/20 06:45:14;;;;;;;20.70;18.05;;;589.60;2432.00;;;;;;5071511;28;20029;-82
2021/07/20 06:47:42;;;;;;;23.05;19.60;;;589.60;2432.00;;;;;;5071141;28;20039;-83
2021/07/20 06:50:09;;;;;;;20.25;18.15;;;614.40;2432.00;;;;;;5067376;28;20036;-81
2021/07/20 06:52:36;;;;;;;24.08;20.17;;;614.50;2432.00;;;;;;5073600;28;20129;-80
2021/07/20 06:55:02;;;;;;;24.40;20.63;;;614.50;2432.00;;;;;;5075064;28;20013;-81
2021/07/20 06:57:30;;;;;;;26.58;20.77;;;614.50;2432.00;;;;;;5073636;28;20108;-82
2021/07/20 06:59:58;;;;;;;28.63;18.63;;;614.60;2432.00;;;;;;5075217;28;20012;-85
2021/07/20 07:02:26;;;;;;;22.83;17.73;;;614.50;2432.00;;;;;;5072766;28;20597;-82
2021/07/20 07:05:01;;;;;;;21.67;17.48;;;614.60;2432.00;;;;;;5073936;28;20458;-81
2021/07/20 07:07:29;;;;;;;21.70;17.45;;;614.70;2432.00;;;;;;5070649;28;20029;-81
2021/07/20 07:09:55;;;;;;;21.95;16.77;;;614.80;2432.00;;;;;;5073563;28;20035;-79
2021/07/20 07:12:22;;;;;;;20.60;15.18;;;614.90;2432.00;;;;;;5070813;28;20037;-82
2021/07/20 07:14:50;;;;;;;18.70;14.07;;;615.00;2432.00;;;;;;5074578;28;20025;-79
2021/07/20 07:17:16;;;;;;;21.33;13.73;;;615.10;2432.00;;;;;;5073362;28;20029;-79
2021/07/20 07:19:46;;;;;;;25.55;14.60;;;615.10;2432.00;;;;;;5073779;28;20012;-82
2021/07/20 07:22:13;;;;;;;19.67;14.60;;;615.20;2432.00;;;;;;5073272;28;20066;-78
2021/07/20 07:24:39;;;;;;;17.67;14.15;;;615.20;2432.00;;;;;;5073518;28;20477;-78
2021/07/20 07:27:06;;;;;;;26.10;13.95;;;615.10;2432.00;;;;;;5074685;28;20032;-81
2021/07/20 07:29:33;;;;;;;18.77;14.00;;;615.20;2432.00;;;;;;5072559;28;20028;-84
2021/07/20 07:31:59;;;;;;;21.95;14.30;;;615.20;2432.00;;;;;;5073309;28;20059;-81
2021/07/20 07:34:26;;;;;;;17.38;13.02;;;615.20;2432.00;;;;;;5073653;28;20063;-79
2021/07/20 07:36:52;;;;;;;21.85;14.32;;;615.00;2432.00;;;;;;5073199;28;20050;-82
2021/07/20 07:39:24;;;;;;;20.90;13.02;;;614.90;2432.00;;;;;;5073099;28;20054;-79
2021/07/20 07:41:52;;;;;;;16.58;12.73;;;615.10;2432.00;;;;;;5074255;28;20142;-80
2021/07/20 07:44:20;;;;;;;20.63;13.85;;;615.10;2432.00;;;;;;5073379;28;20036;-79
2021/07/20 07:46:49;;;;;;;17.35;12.70;;;615.10;2432.00;;;;;;5073051;28;20393;-79
2021/07/20 07:49:15;;;;;;;19.92;12.65;;;615.10;2432.00;;;;;;5072826;28;20232;-82
2021/07/20 07:51:44;;;;;;;17.75;12.07;;;615.10;2432.00;;;;;;5072373;28;20048;-81
2021/07/20 07:54:11;;;;;;;18.10;11.98;;;615.10;2432.00;;;;;;5072832;28;20032;-80
2021/07/20 07:56:37;;;;;;;18.42;10.98;;;614.90;2432.00;;;;;;5073085;28;20037;-80
2021/07/20 07:59:04;;;;;;;20.55;13.38;;;614.90;2432.00;;;;;;5073174;28;20040;-79
2021/07/20 08:01:33;;;;;;;25.75;13.95;;;614.90;2432.00;;;;;;5072522;28;20041;-81
2021/07/20 08:04:02;;;;;;;15.68;11.27;;;614.90;2432.00;;;;;;5074647;28;20024;-79
2021/07/20 08:06:30;;;;;;;18.23;10.60;;;614.90;2432.00;;;;;;5072384;28;20013;-80
2021/07/20 08:08:59;;;;;;;21.45;11.40;;;614.90;2432.00;;;;;;5071658;28;20051;-82
2021/07/20 08:11:27;;;;;;;19.63;12.02;;;614.90;2432.00;;;;;;5073753;28;20489;-84
2021/07/20 08:13:55;;;;;;;19.90;11.38;;;615.00;2432.00;;;;;;5077133;28;20089;-81
2021/07/20 08:16:22;;;;;;;18.55;10.10;;;615.10;2432.00;;;;;;5075662;28;20028;-80
2021/07/20 08:18:48;;;;;;;13.98;10.05;;;615.30;2432.00;;;;;;5072756;28;20028;-79
2021/07/20 08:21:15;;;;;;;17.35;10.27;;;640.20;2432.00;;;;;;5072412;28;20028;-79
2021/07/20 08:23:44;;;;;;;15.65;10.57;;;640.20;2432.00;;;;;;5073013;28;20401;-79
2021/07/20 08:26:26;;;;;;;16.58;9.70;;;640.30;2432.00;;;;;;5088879;28;20100;-81
2021/07/20 08:29:03;;;;;;;18.77;8.57;;;640.50;2432.00;;;;;;5088199;28;20050;-83
2021/07/20 08:31:35;;;;;;;25.67;10.25;;;640.40;2406.40;;;;;;5078096;28;20027;-87
2021/07/20 08:34:04;;;;;;;15.68;8.02;;;640.50;2406.40;;;;;;5085645;28;20020;-80
2021/07/20 08:36:33;;;;;;;18.08;8.48;;;640.70;2329.60;;;;;;5085382;28;20074;-81
2021/07/20 08:39:02;;;;;;;17.67;8.50;;;665.60;2355.20;;;;;;5073743;28;20020;-78
2021/07/20 08:41:38;;;;;;;15.52;7.55;;;665.70;2380.80;;;;;;5088763;28;20067;-80
2021/07/20 08:44:35;;;;;;;15.18;9.05;;;665.80;2304.00;;;;;;5072902;28;20029;-80
2021/07/20 08:47:28;;;;;;;11.15;8.15;;;666.00;2304.00;;;;;;5072843;28;20477;-80
2021/07/20 08:50:03;;;;;;;12.27;8.68;;;666.00;2304.00;;;;;;5072480;28;20111;-79
2021/07/20 08:52:39;;;;;;;17.93;8.83;;;665.90;2278.40;;;;;;5073695;28;20033;-86
2021/07/20 08:55:27;;;;;;;17.08;8.85;;;665.90;2278.40;;;;;;5073865;28;20323;-80
2021/07/20 08:58:02;;;;;;;16.75;9.07;;;665.80;2304.00;;;;;;5073403;28;20012;-78
2021/07/20 09:00:49;;;;;;;20.17;10.20;;;665.90;2278.40;;;;;;5072094;28;20024;-79
2021/07/20 09:03:35;;;;;;;17.50;9.13;;;666.00;2252.80;;;;;;5072012;28;20273;-78
2021/07/20 09:06:10;;;;;;;;;;;666.00;2252.80;;;;;;5072735;28;20027;-79
2021/07/20 09:08:35;;;;;;;12.95;8.98;;;666.20;2304.00;;;;;;5070891;28;19908;-78
2021/07/20 09:11:22;;;;;;;15.35;9.10;;;666.50;2252.80;;;;;;5073249;28;20074;-79
2021/07/20 09:14:07;;;;;;;16.50;9.68;;;666.50;2227.20;;;;;;5071178;28;20403;-79
2021/07/20 09:16:35;;;;;;;14.07;9.93;;;666.50;2252.80;;;;;;5073444;28;20032;-80
2021/07/20 09:52:25;;;;;;;11.82;8.25;;;666.50;2252.80;;;;;;5147250;27;20944;-80
2021/07/20 09:55:04;;;;;;;12.07;9.40;;;692.00;2099.20;;;;;;5138307;27;20118;-81
2021/07/20 09:57:36;;;;;;;12.80;9.13;;;716.90;2099.20;;;;;;5142330;27;20365;-82
2021/07/20 10:00:17;;;;;;;12.85;9.38;;;717.10;2099.20;;;;;;5136874;27;20023;-81
2021/07/20 10:03:04;;;;;;;18.35;9.63;;;716.80;2073.60;;;;;;5142967;27;20058;-81
2021/07/20 10:05:51;;;;;;;17.60;10.27;;;692.10;2048.00;;;;;;5128678;27;20552;-82
2021/07/20 10:08:49;;;;;;;13.73;9.50;;;716.90;2048.00;;;;;;5143855;27;20016;-82
2021/07/20 10:11:47;;;;;;;12.40;9.23;;;717.40;2073.60;;;;;;5080133;28;20047;-82
2021/07/20 10:14:30;;;;;;;17.30;10.68;;;717.40;2048.00;;;;;;5077968;28;20024;-85
2021/07/20 10:17:13;;;;;;;11.80;8.55;;;717.20;1996.80;;;;;;5069660;28;20441;-82
2021/07/20 10:20:04;;;;;;;11.30;8.68;;;717.10;1996.80;;;;;;5068144;28;20127;-82
2021/07/20 10:23:02;;;;;;;12.75;10.23;;;717.20;2022.40;;;;;;5082424;28;20052;-86
2021/07/20 10:25:42;;;;;;;16.98;9.93;;;716.90;2048.00;;;;;;5050596;28;20410;-80
2021/07/20 10:28:27;;;;;;;16.13;10.60;;;717.10;1996.80;;;;;;5053650;28;20040;-88
2021/07/20 10:31:09;;;;;;;15.52;10.48;;;717.30;2048.00;;;;;;5084927;28;20035;-80
2021/07/20 10:33:43;;;;;;;16.50;9.93;;;717.20;2022.40;;;;;;5086399;28;20028;-84
2021/07/20 10:36:28;;;;;;;16.60;10.43;;;717.40;2073.60;;;;;;5070695;28;20119;-91
2021/07/20 10:39:06;;;;;;;15.35;10.05;;;717.20;2022.40;;;;;;5085946;28;20032;-93
2021/07/20 10:41:49;;;;;;;14.93;10.05;;;716.90;2048.00;;;;;;5076418;28;20142;-88
2021/07/20 10:44:25;;;;;;;14.70;9.82;;;691.90;2022.40;;;;;;5081330;28;20021;-88
2021/07/20 10:46:54;;;;;;;17.00;10.25;;;691.90;2073.60;;;;;;5086660;28;20036;-83
2021/07/20 10:49:43;;;;;;;16.35;10.55;;;717.20;2048.00;;;;;;5136586;27;20019;-81
2021/07/20 10:52:27;;;;;;;18.63;10.85;;;717.20;2022.40;;;;;;5123841;27;20036;-81
2021/07/20 10:55:03;;;;;;;17.92;10.93;;;717.00;2022.40;;;;;;5119364;27;20026;-90
2021/07/20 10:57:35;;;;;;;15.73;11.10;;;716.90;2022.40;;;;;;5118111;27;20012;-89
2021/07/20 11:00:07;;;;;;;20.20;12.20;;;716.80;2073.60;;;;;;5114631;27;20452;-88
2021/07/20 11:02:47;;;;;;;17.13;11.65;;;716.90;2048.00;;;;;;5130071;27;20059;-89
2021/07/20 11:05:16;;;;;;;15.45;10.93;;;717.40;1996.80;;;;;;5115494;28;20049;-84
2021/07/20 11:08:12;;;;;;;15.25;10.07;;;717.70;1971.20;;;;;;5134468;27;20038;-82
2021/07/20 11:10:44;;;;;;;12.83;8.77;;;742.50;1996.80;;;;;;5054410;28;20165;-83
2021/07/20 11:13:14;;;;;;;11.23;8.38;;;717.40;1971.20;;;;;;5054799;28;20025;-84
2021/07/20 11:15:43;;;;;;;15.32;9.50;;;717.30;1971.20;;;;;;5057882;28;20169;-80
2021/07/20 11:18:13;;;;;;;14.25;10.20;;;717.20;2048.00;;;;;;5072968;28;20089;-88
2021/07/20 11:20:42;;;;;;;13.07;9.23;;;717.20;2022.40;;;;;;5053775;28;20048;-80
2021/07/20 11:23:09;;;;;;;16.05;9.82;;;716.90;1996.80;;;;;;5048650;28;20016;-80
2021/07/20 11:25:37;;;;;;;18.45;10.30;;;716.90;2048.00;;;;;;5067766;28;20155;-87
2021/07/20 11:28:04;;;;;;;18.33;10.23;;;716.90;2022.40;;;;;;5065522;28;20112;-79
2021/07/20 11:30:32;;;;;;;19.05;11.07;;;716.90;2048.00;;;;;;5073176;28;20031;-88
2021/07/20 11:33:07;;;;;;;14.52;9.88;;;716.80;2022.40;;;;;;5056816;28;20491;-82
2021/07/20 11:35:38;;;;;;;17.83;10.70;;;692.10;1996.80;;;;;;5061756;28;20059;-84
2021/07/20 11:38:13;;;;;;;18.90;10.80;;;716.90;1996.80;;;;;;5057867;28;20300;-78
2021/07/20 11:41:00;;;;;;;18.88;10.48;;;717.30;1996.80;;;;;;5042681;28;20229;-79
2021/07/20 11:43:42;;;;;;;17.80;10.40;;;742.40;2048.00;;;;;;5055368;28;20021;-81
2021/07/20 11:46:14;;;;;;;18.00;11.13;;;742.70;1920.00;;;;;;5076681;27;20046;-80
2021/07/20 11:48:53;;;;;;;19.45;11.98;;;742.90;1843.20;;;;;;5124464;27;20018;-85
2021/07/20 11:51:30;;;;;;;16.08;11.82;;;742.90;1817.60;;;;;;5125450;27;20055;-83
2021/07/20 11:54:20;;;;;;;17.60;11.30;;;742.80;1817.60;;;;;;5130282;27;20042;-83
2021/07/20 11:56:58;;;;;;;20.92;12.98;;;742.50;1920.00;;;;;;5120854;27;20023;-83
2021/07/20 12:00:13;;;;;;;17.02;11.45;;;742.60;1868.80;;;;;;5132166;27;20035;-81
2021/07/20 12:03:18;;;;;;;21.48;12.00;;;742.80;1792.00;;;;;;5091221;28;20058;-79
2021/07/20 12:06:05;;;;;;;16.52;11.38;;;743.10;1817.60;;;;;;5089171;28;20028;-80
2021/07/20 12:08:49;;;;;;;16.58;10.25;;;743.30;1792.00;;;;;;5073384;28;20024;-81
2021/07/20 12:11:22;;;;;;;18.88;10.30;;;743.30;1740.80;;;;;;5087983;28;20379;-85
2021/07/20 12:13:49;;;;;;;21.60;11.07;;;743.30;1689.60;;;;;;5088572;28;20059;-86
2021/07/20 12:16:16;;;;;;;15.45;10.02;;;768.20;1715.20;;;;;;5091028;28;20451;-81
2021/07/20 12:18:54;;;;;;;17.60;10.45;;;768.10;1612.80;;;;;;5083880;28;20070;-80
2021/07/20 12:21:23;;;;;;;16.63;10.48;;;768.10;1638.40;;;;;;5091399;28;20101;-80
2021/07/20 12:23:52;;;;;;;13.07;9.90;;;768.40;1638.40;;;;;;5092211;28;20612;-80
2021/07/20 12:26:22;;;;;;;20.80;11.60;;;768.50;1664.00;;;;;;5059207;28;20074;-81
2021/07/20 12:28:49;;;;;;;15.32;11.10;;;768.30;1715.20;;;;;;5091821;28;20028;-80
2021/07/20 12:31:15;;;;;;;17.98;10.45;;;768.40;1715.20;;;;;;5091440;28;20071;-79
2021/07/20 12:33:44;;;;;;;19.35;11.48;;;768.40;1715.20;;;;;;5073825;28;20027;-80
2021/07/20 12:36:12;;;;;;;19.50;11.52;;;768.40;1715.20;;;;;;5091865;28;20082;-81
2021/07/20 12:38:38;;;;;;;20.42;10.48;;;768.00;1740.80;;;;;;5101776;27;20376;-80
2021/07/20 12:41:08;;;;;;;19.65;11.85;;;743.30;1715.20;;;;;;5132925;27;20046;-80
2021/07/20 12:43:38;;;;;;;16.77;10.60;;;768.20;1689.60;;;;;;5133018;27;20043;-84
2021/07/20 12:46:15;;;;;;;18.00;12.45;;;768.20;1740.80;;;;;;5131081;27;20019;-83
2021/07/20 12:48:54;;;;;;;26.30;11.73;;;743.30;1689.60;;;;;;5120390;27;20019;-83
2021/07/20 12:51:22;;;;;;;19.63;11.93;;;743.30;1715.20;;;;;;5130052;27;20067;-83
2021/07/20 12:53:50;;;;;;;20.17;11.77;;;743.30;1664.00;;;;;;5125025;27;20028;-81
2021/07/20 12:56:27;;;;;;;20.50;12.05;;;743.30;1689.60;;;;;;5125572;27;20023;-86